sensor_id;sensor_type;location;lat;lon;timestamp;temperature;humidity
2997;DHT22;1508;48.744;9.110;2023-05-07T00:02:17;13.10;99.90
2997;DHT22;1508;48.744;9.110;2023-05-07T00:05:03;13.00;99.90
2997;DHT22;1508;48.744;9.110;2023-05-07T00:07:48;13.00;99.90
2997;DHT22;1508;48.744;9.110;2023-05-07T00:10:34;12.90;99.90
2997;DHT22;1508;48.744;9.110;2023-05-07T00:13:20;12.90;99.90
2997;DHT22;1508;48.744;9.110;2023-05-07T00:16:06;12.80;99.90
2997;DHT22;1508;48.744;9.110;2023-05-07T00:18:52;12.70;99.90
2997;DHT22;1508;48.744;9.110;2023-05-07T00:21:37;12.80;99.90
2997;DHT22;1508;48.744;9.110;2023-05-07T00:24:23;12.70;99.90
2997;DHT22;1508;48.744;9.110;2023-05-07T00:27:09;12.70;99.90
2997;DHT22;1508;48.744;9.110;2023-05-07T00:29:55;12.70;99.90
2997;DHT22;1508;48.744;9.110;2023-05-07T00:32:40;12.70;99.90
2997;DHT22;1508;48.744;9.110;2023-05-07T00:35:26;12.60;99.90
2997;DHT22;1508;48.744;9.110;2023-05-07T00:38:12;12.60;99.90
2997;DHT22;1508;48.744;9.110;2023-05-07T00:40:57;12.50;99.90
2997;DHT22;1508;48.744;9.110;2023-05-07T00:43:43;12.60;99.90
2997;DHT22;1508;48.744;9.110;2023-05-07T00:46:29;12.50;99.90
2997;DHT22;1508;48.744;9.110;2023-05-07T00:49:16;12.50;99.90
2997;DHT22;1508;48.744;9.110;2023-05-07T00:52:02;12.40;99.90
2997;DHT22;1508;48.744;9.110;2023-05-07T00:54:48;12.40;99.90
2997;DHT22;1508;48.744;9.110;2023-05-07T00:57:36;12.40;99.90
2997;DHT22;1508;48.744;9.110;2023-05-07T01:00:22;12.40;99.90
2997;DHT22;1508;48.744;9.110;2023-05-07T01:03:08;12.40;99.90
2997;DHT22;1508;48.744;9.110;2023-05-07T01:05:53;12.30;99.90
2997;DHT22;1508;48.744;9.110;2023-05-07T01:08:40;12.30;99.90
2997;DHT22;1508;48.744;9.110;2023-05-07T01:11:26;12.30;99.90
2997;DHT22;1508;48.744;9.110;2023-05-07T01:14:12;12.30;99.90
2997;DHT22;1508;48.744;9.110;2023-05-07T01:16:58;12.20;99.90
2997;DHT22;1508;48.744;9.110;2023-05-07T01:19:44;12.30;99.90
2997;DHT22;1508;48.744;9.110;2023-05-07T01:22:31;12.20;99.90
2997;DHT22;1508;48.744;9.110;2023-05-07T01:25:17;12.20;99.90
2997;DHT22;1508;48.744;9.110;2023-05-07T01:28:03;12.20;99.90
2997;DHT22;1508;48.744;9.110;2023-05-07T01:30:56;12.20;99.90
2997;DHT22;1508;48.744;9.110;2023-05-07T01:33:45;12.20;99.90
2997;DHT22;1508;48.744;9.110;2023-05-07T01:36:31;12.10;99.90
2997;DHT22;1508;48.744;9.110;2023-05-07T01:39:18;12.10;99.90
2997;DHT22;1508;48.744;9.110;2023-05-07T01:42:03;12.10;99.90
2997;DHT22;1508;48.744;9.110;2023-05-07T01:44:49;12.10;99.90
2997;DHT22;1508;48.744;9.110;2023-05-07T01:47:36;12.10;99.90
2997;DHT22;1508;48.744;9.110;2023-05-07T01:50:21;12.10;99.90
2997;DHT22;1508;48.744;9.110;2023-05-07T01:53:08;12.10;99.90
2997;DHT22;1508;48.744;9.110;2023-05-07T01:55:54;12.10;99.90
2997;DHT22;1508;48.744;9.110;2023-05-07T01:58:39;12.10;99.90
2997;DHT22;1508;48.744;9.110;2023-05-07T02:01:25;12.10;99.90
2997;DHT22;1508;48.744;9.110;2023-05-07T02:04:11;12.00;99.90
2997;DHT22;1508;48.744;9.110;2023-05-07T02:06:57;12.00;99.90
2997;DHT22;1508;48.744;9.110;2023-05-07T02:09:42;12.00;99.90
2997;DHT22;1508;48.744;9.110;2023-05-07T02:12:28;12.00;99.90
2997;DHT22;1508;48.744;9.110;2023-05-07T02:15:14;12.00;99.90
2997;DHT22;1508;48.744;9.110;2023-05-07T02:20:45;12.10;99.90
2997;DHT22;1508;48.744;9.110;2023-05-07T02:23:31;12.10;99.90
2997;DHT22;1508;48.744;9.110;2023-05-07T02:26:17;12.10;99.90
2997;DHT22;1508;48.744;9.110;2023-05-07T02:29:03;12.20;99.90
2997;DHT22;1508;48.744;9.110;2023-05-07T02:31:49;12.20;99.90
2997;DHT22;1508;48.744;9.110;2023-05-07T02:34:34;12.20;99.90
2997;DHT22;1508;48.744;9.110;2023-05-07T02:37:20;12.20;99.90
2997;DHT22;1508;48.744;9.110;2023-05-07T02:40:06;12.10;99.90
2997;DHT22;1508;48.744;9.110;2023-05-07T02:42:52;12.00;99.90
2997;DHT22;1508;48.744;9.110;2023-05-07T02:45:38;12.00;99.90
2997;DHT22;1508;48.744;9.110;2023-05-07T02:48:23;11.90;99.90
2997;DHT22;1508;48.744;9.110;2023-05-07T02:51:09;11.90;99.90
2997;DHT22;1508;48.744;9.110;2023-05-07T02:53:55;11.80;99.90
2997;DHT22;1508;48.744;9.110;2023-05-07T02:56:40;11.80;99.90
2997;DHT22;1508;48.744;9.110;2023-05-07T02:59:26;11.70;99.90
2997;DHT22;1508;48.744;9.110;2023-05-07T03:02:12;11.70;99.90
2997;DHT22;1508;48.744;9.110;2023-05-07T03:04:58;11.70;99.90
2997;DHT22;1508;48.744;9.110;2023-05-07T03:07:43;11.70;99.90
2997;DHT22;1508;48.744;9.110;2023-05-07T03:10:29;11.60;99.90
2997;DHT22;1508;48.744;9.110;2023-05-07T03:13:15;11.60;99.90
2997;DHT22;1508;48.744;9.110;2023-05-07T03:16:01;11.50;99.90
2997;DHT22;1508;48.744;9.110;2023-05-07T03:18:47;11.50;99.90
2997;DHT22;1508;48.744;9.110;2023-05-07T03:21:32;11.50;99.90
2997;DHT22;1508;48.744;9.110;2023-05-07T03:24:18;11.50;99.90
2997;DHT22;1508;48.744;9.110;2023-05-07T03:27:04;11.40;99.90
2997;DHT22;1508;48.744;9.110;2023-05-07T03:29:49;11.40;99.90
2997;DHT22;1508;48.744;9.110;2023-05-07T03:32:35;11.30;99.90
2997;DHT22;1508;48.744;9.110;2023-05-07T03:35:21;11.30;99.90
2997;DHT22;1508;48.744;9.110;2023-05-07T03:38:07;11.30;99.90
2997;DHT22;1508;48.744;9.110;2023-05-07T03:40:53;11.30;99.90
2997;DHT22;1508;48.744;9.110;2023-05-07T03:43:38;11.30;99.90
2997;DHT22;1508;48.744;9.110;2023-05-07T03:46:24;11.30;99.90
2997;DHT22;1508;48.744;9.110;2023-05-07T03:49:10;11.20;99.90
2997;DHT22;1508;48.744;9.110;2023-05-07T03:51:55;11.20;99.90
2997;DHT22;1508;48.744;9.110;2023-05-07T03:54:41;11.20;99.90
2997;DHT22;1508;48.744;9.110;2023-05-07T03:57:27;11.10;99.90
2997;DHT22;1508;48.744;9.110;2023-05-07T04:00:13;11.10;99.90
2997;DHT22;1508;48.744;9.110;2023-05-07T04:02:59;11.10;99.90
2997;DHT22;1508;48.744;9.110;2023-05-07T04:05:44;11.10;99.90
2997;DHT22;1508;48.744;9.110;2023-05-07T04:08:30;11.10;99.90
2997;DHT22;1508;48.744;9.110;2023-05-07T04:11:16;11.10;99.90
2997;DHT22;1508;48.744;9.110;2023-05-07T04:14:02;11.00;99.90
2997;DHT22;1508;48.744;9.110;2023-05-07T04:16:47;11.00;99.90
2997;DHT22;1508;48.744;9.110;2023-05-07T04:19:33;11.00;99.90
2997;DHT22;1508;48.744;9.110;2023-05-07T04:22:19;11.00;99.90
2997;DHT22;1508;48.744;9.110;2023-05-07T04:25:05;11.10;99.90
2997;DHT22;1508;48.744;9.110;2023-05-07T04:27:51;11.10;99.90
2997;DHT22;1508;48.744;9.110;2023-05-07T04:30:36;11.20;99.90
2997;DHT22;1508;48.744;9.110;2023-05-07T04:33:22;11.20;99.90
2997;DHT22;1508;48.744;9.110;2023-05-07T04:36:08;11.30;99.90
2997;DHT22;1508;48.744;9.110;2023-05-07T04:38:54;11.40;99.90
2997;DHT22;1508;48.744;9.110;2023-05-07T04:41:40;11.40;99.90
2997;DHT22;1508;48.744;9.110;2023-05-07T04:44:25;11.50;99.90
2997;DHT22;1508;48.744;9.110;2023-05-07T04:47:11;11.60;99.90
2997;DHT22;1508;48.744;9.110;2023-05-07T04:49:57;11.70;99.90
2997;DHT22;1508;48.744;9.110;2023-05-07T04:52:43;11.70;99.90
2997;DHT22;1508;48.744;9.110;2023-05-07T04:55:29;11.70;99.90
2997;DHT22;1508;48.744;9.110;2023-05-07T04:58:14;11.70;99.90
2997;DHT22;1508;48.744;9.110;2023-05-07T05:01:00;11.70;99.90
2997;DHT22;1508;48.744;9.110;2023-05-07T05:03:46;11.70;99.90
2997;DHT22;1508;48.744;9.110;2023-05-07T05:06:32;11.80;99.90
2997;DHT22;1508;48.744;9.110;2023-05-07T05:09:17;11.80;99.90
2997;DHT22;1508;48.744;9.110;2023-05-07T05:12:03;11.90;99.90
2997;DHT22;1508;48.744;9.110;2023-05-07T05:14:49;12.00;99.90
2997;DHT22;1508;48.744;9.110;2023-05-07T05:17:35;12.00;99.90
2997;DHT22;1508;48.744;9.110;2023-05-07T05:20:20;12.30;99.90
2997;DHT22;1508;48.744;9.110;2023-05-07T05:23:07;12.60;99.90
2997;DHT22;1508;48.744;9.110;2023-05-07T05:25:56;12.90;99.90
2997;DHT22;1508;48.744;9.110;2023-05-07T05:28:42;13.40;99.90
2997;DHT22;1508;48.744;9.110;2023-05-07T05:31:28;13.80;99.90
2997;DHT22;1508;48.744;9.110;2023-05-07T05:34:14;14.00;99.90
2997;DHT22;1508;48.744;9.110;2023-05-07T05:36:59;14.40;99.90
2997;DHT22;1508;48.744;9.110;2023-05-07T05:39:45;15.00;99.90
2997;DHT22;1508;48.744;9.110;2023-05-07T05:42:31;15.60;99.90
2997;DHT22;1508;48.744;9.110;2023-05-07T05:45:17;16.10;99.90
2997;DHT22;1508;48.744;9.110;2023-05-07T05:48:02;16.50;99.90
2997;DHT22;1508;48.744;9.110;2023-05-07T05:50:48;17.00;99.90
2997;DHT22;1508;48.744;9.110;2023-05-07T05:53:34;17.50;99.90
2997;DHT22;1508;48.744;9.110;2023-05-07T05:56:19;17.80;99.90
2997;DHT22;1508;48.744;9.110;2023-05-07T05:59:05;17.70;99.90
2997;DHT22;1508;48.744;9.110;2023-05-07T06:01:51;17.90;99.90
2997;DHT22;1508;48.744;9.110;2023-05-07T06:04:37;18.20;99.90
2997;DHT22;1508;48.744;9.110;2023-05-07T06:07:22;17.90;99.90
2997;DHT22;1508;48.744;9.110;2023-05-07T06:10:08;17.80;99.90
2997;DHT22;1508;48.744;9.110;2023-05-07T06:12:54;18.00;99.90
2997;DHT22;1508;48.744;9.110;2023-05-07T06:15:40;18.20;99.90
2997;DHT22;1508;48.744;9.110;2023-05-07T06:18:26;18.00;99.90
2997;DHT22;1508;48.744;9.110;2023-05-07T06:21:12;18.00;99.90
2997;DHT22;1508;48.744;9.110;2023-05-07T06:23:58;17.80;99.90
2997;DHT22;1508;48.744;9.110;2023-05-07T06:26:44;17.70;99.90
2997;DHT22;1508;48.744;9.110;2023-05-07T06:29:30;17.80;99.90
2997;DHT22;1508;48.744;9.110;2023-05-07T06:32:15;17.60;99.90
2997;DHT22;1508;48.744;9.110;2023-05-07T06:35:01;17.30;99.90
2997;DHT22;1508;48.744;9.110;2023-05-07T06:37:47;17.30;99.90
2997;DHT22;1508;48.744;9.110;2023-05-07T06:40:33;17.00;99.90
2997;DHT22;1508;48.744;9.110;2023-05-07T06:43:18;17.00;99.90
2997;DHT22;1508;48.744;9.110;2023-05-07T06:46:04;16.70;99.90
2997;DHT22;1508;48.744;9.110;2023-05-07T06:48:50;16.70;99.90
2997;DHT22;1508;48.744;9.110;2023-05-07T06:51:35;16.90;99.90
2997;DHT22;1508;48.744;9.110;2023-05-07T06:54:22;17.00;99.90
2997;DHT22;1508;48.744;9.110;2023-05-07T06:57:07;17.00;99.90
2997;DHT22;1508;48.744;9.110;2023-05-07T06:59:53;17.20;99.90
2997;DHT22;1508;48.744;9.110;2023-05-07T07:02:39;17.30;99.90
2997;DHT22;1508;48.744;9.110;2023-05-07T07:05:24;17.40;99.90
2997;DHT22;1508;48.744;9.110;2023-05-07T07:08:10;17.60;99.90
2997;DHT22;1508;48.744;9.110;2023-05-07T07:10:56;17.50;99.90
2997;DHT22;1508;48.744;9.110;2023-05-07T07:13:42;17.70;99.90
2997;DHT22;1508;48.744;9.110;2023-05-07T07:16:27;17.60;99.90
2997;DHT22;1508;48.744;9.110;2023-05-07T07:19:13;17.70;99.90
2997;DHT22;1508;48.744;9.110;2023-05-07T07:21:59;17.90;99.90
2997;DHT22;1508;48.744;9.110;2023-05-07T07:24:45;18.30;99.90
2997;DHT22;1508;48.744;9.110;2023-05-07T07:27:30;18.70;99.90
2997;DHT22;1508;48.744;9.110;2023-05-07T07:30:16;18.80;99.90
2997;DHT22;1508;48.744;9.110;2023-05-07T07:33:02;19.00;99.90
2997;DHT22;1508;48.744;9.110;2023-05-07T07:35:48;19.10;99.90
2997;DHT22;1508;48.744;9.110;2023-05-07T07:38:34;19.50;99.90
2997;DHT22;1508;48.744;9.110;2023-05-07T07:41:20;19.90;99.90
2997;DHT22;1508;48.744;9.110;2023-05-07T07:44:05;20.30;99.90
2997;DHT22;1508;48.744;9.110;2023-05-07T07:46:51;20.40;99.90
2997;DHT22;1508;48.744;9.110;2023-05-07T07:49:37;20.60;99.90
2997;DHT22;1508;48.744;9.110;2023-05-07T07:52:23;20.90;99.90
2997;DHT22;1508;48.744;9.110;2023-05-07T07:55:08;21.00;99.90
2997;DHT22;1508;48.744;9.110;2023-05-07T07:57:54;20.80;99.90
2997;DHT22;1508;48.744;9.110;2023-05-07T08:00:40;21.10;99.90
2997;DHT22;1508;48.744;9.110;2023-05-07T08:03:25;21.40;99.90
2997;DHT22;1508;48.744;9.110;2023-05-07T08:06:11;21.10;99.90
2997;DHT22;1508;48.744;9.110;2023-05-07T08:08:57;20.90;99.90
2997;DHT22;1508;48.744;9.110;2023-05-07T08:11:43;20.90;99.90
2997;DHT22;1508;48.744;9.110;2023-05-07T08:14:28;21.10;99.90
2997;DHT22;1508;48.744;9.110;2023-05-07T08:17:14;21.80;99.90
2997;DHT22;1508;48.744;9.110;2023-05-07T08:20:00;21.70;99.90
2997;DHT22;1508;48.744;9.110;2023-05-07T08:22:46;21.60;99.90
2997;DHT22;1508;48.744;9.110;2023-05-07T08:25:32;21.70;99.90
2997;DHT22;1508;48.744;9.110;2023-05-07T08:28:18;21.90;99.90
2997;DHT22;1508;48.744;9.110;2023-05-07T08:31:04;22.10;99.90
2997;DHT22;1508;48.744;9.110;2023-05-07T08:33:50;22.30;99.90
2997;DHT22;1508;48.744;9.110;2023-05-07T08:36:35;22.10;99.90
2997;DHT22;1508;48.744;9.110;2023-05-07T08:39:21;21.90;99.90
2997;DHT22;1508;48.744;9.110;2023-05-07T08:42:07;22.00;99.90
2997;DHT22;1508;48.744;9.110;2023-05-07T08:44:54;22.10;99.90
2997;DHT22;1508;48.744;9.110;2023-05-07T08:47:43;22.20;99.90
2997;DHT22;1508;48.744;9.110;2023-05-07T08:50:29;22.10;99.90
2997;DHT22;1508;48.744;9.110;2023-05-07T08:53:15;21.90;99.90
2997;DHT22;1508;48.744;9.110;2023-05-07T08:56:01;22.40;99.90
2997;DHT22;1508;48.744;9.110;2023-05-07T08:58:48;22.50;99.90
2997;DHT22;1508;48.744;9.110;2023-05-07T09:01:33;22.20;99.90
2997;DHT22;1508;48.744;9.110;2023-05-07T09:04:19;22.20;99.90
2997;DHT22;1508;48.744;9.110;2023-05-07T09:07:05;22.40;99.90
2997;DHT22;1508;48.744;9.110;2023-05-07T09:09:51;22.60;99.90
2997;DHT22;1508;48.744;9.110;2023-05-07T09:12:36;22.90;99.90
2997;DHT22;1508;48.744;9.110;2023-05-07T09:15:22;22.80;99.90
2997;DHT22;1508;48.744;9.110;2023-05-07T09:18:08;22.60;99.90
2997;DHT22;1508;48.744;9.110;2023-05-07T09:20:54;23.00;99.90
2997;DHT22;1508;48.744;9.110;2023-05-07T09:23:40;22.90;99.90
2997;DHT22;1508;48.744;9.110;2023-05-07T09:26:26;23.00;99.90
2997;DHT22;1508;48.744;9.110;2023-05-07T09:29:12;22.90;99.90
2997;DHT22;1508;48.744;9.110;2023-05-07T09:31:58;23.10;99.90
2997;DHT22;1508;48.744;9.110;2023-05-07T09:34:44;23.10;99.90
2997;DHT22;1508;48.744;9.110;2023-05-07T09:37:30;23.00;99.90
2997;DHT22;1508;48.744;9.110;2023-05-07T09:40:26;23.00;99.90
2997;DHT22;1508;48.744;9.110;2023-05-07T09:43:12;23.00;99.90
2997;DHT22;1508;48.744;9.110;2023-05-07T09:45:59;23.00;99.90
2997;DHT22;1508;48.744;9.110;2023-05-07T09:48:47;23.10;99.90
2997;DHT22;1508;48.744;9.110;2023-05-07T09:51:38;23.10;99.90
2997;DHT22;1508;48.744;9.110;2023-05-07T09:54:25;23.00;99.90
2997;DHT22;1508;48.744;9.110;2023-05-07T09:57:11;23.10;99.90
2997;DHT22;1508;48.744;9.110;2023-05-07T09:59:57;23.30;99.90
2997;DHT22;1508;48.744;9.110;2023-05-07T10:02:43;23.60;99.90
2997;DHT22;1508;48.744;9.110;2023-05-07T10:05:30;23.50;99.90
2997;DHT22;1508;48.744;9.110;2023-05-07T10:08:16;23.70;99.90
2997;DHT22;1508;48.744;9.110;2023-05-07T10:11:03;23.60;99.90
2997;DHT22;1508;48.744;9.110;2023-05-07T10:13:49;23.60;99.90
2997;DHT22;1508;48.744;9.110;2023-05-07T10:16:35;23.70;99.90
2997;DHT22;1508;48.744;9.110;2023-05-07T10:19:21;24.00;99.90
2997;DHT22;1508;48.744;9.110;2023-05-07T10:22:07;24.10;99.90
2997;DHT22;1508;48.744;9.110;2023-05-07T10:24:53;23.90;99.90
2997;DHT22;1508;48.744;9.110;2023-05-07T10:27:39;23.90;99.90
2997;DHT22;1508;48.744;9.110;2023-05-07T10:33:18;23.90;99.90
2997;DHT22;1508;48.744;9.110;2023-05-07T10:36:05;24.40;99.90
2997;DHT22;1508;48.744;9.110;2023-05-07T10:38:51;24.70;99.90
2997;DHT22;1508;48.744;9.110;2023-05-07T10:41:36;24.80;99.90
2997;DHT22;1508;48.744;9.110;2023-05-07T10:44:26;24.60;99.90
2997;DHT22;1508;48.744;9.110;2023-05-07T10:47:12;24.60;99.90
2997;DHT22;1508;48.744;9.110;2023-05-07T10:59:25;25.20;99.90
2997;DHT22;1508;48.744;9.110;2023-05-07T11:02:05;25.50;99.90
2997;DHT22;1508;48.744;9.110;2023-05-07T11:10:53;25.60;99.90
2997;DHT22;1508;48.744;9.110;2023-05-07T11:13:46;25.50;99.90
2997;DHT22;1508;48.744;9.110;2023-05-07T11:16:31;25.40;99.90
2997;DHT22;1508;48.744;9.110;2023-05-07T11:19:17;25.30;99.90
2997;DHT22;1508;48.744;9.110;2023-05-07T11:25:18;24.70;99.90
2997;DHT22;1508;48.744;9.110;2023-05-07T11:28:05;24.40;99.90
2997;DHT22;1508;48.744;9.110;2023-05-07T11:30:50;24.20;99.90
2997;DHT22;1508;48.744;9.110;2023-05-07T11:33:37;23.80;99.90
2997;DHT22;1508;48.744;9.110;2023-05-07T11:36:23;23.80;99.90
2997;DHT22;1508;48.744;9.110;2023-05-07T11:39:24;23.70;99.90
2997;DHT22;1508;48.744;9.110;2023-05-07T11:45:11;23.00;99.90
2997;DHT22;1508;48.744;9.110;2023-05-07T11:47:57;22.00;99.90
2997;DHT22;1508;48.744;9.110;2023-05-07T11:50:52;21.70;99.90
2997;DHT22;1508;48.744;9.110;2023-05-07T11:53:41;21.00;99.90
2997;DHT22;1508;48.744;9.110;2023-05-07T11:56:27;20.00;99.90
2997;DHT22;1508;48.744;9.110;2023-05-07T11:59:16;19.40;99.90
2997;DHT22;1508;48.744;9.110;2023-05-07T12:02:02;18.80;99.90
2997;DHT22;1508;48.744;9.110;2023-05-07T12:04:48;18.20;99.90
2997;DHT22;1508;48.744;9.110;2023-05-07T12:07:34;17.60;99.90
2997;DHT22;1508;48.744;9.110;2023-05-07T12:10:19;17.50;99.90
2997;DHT22;1508;48.744;9.110;2023-05-07T12:13:13;17.20;99.90
2997;DHT22;1508;48.744;9.110;2023-05-07T12:15:59;17.00;99.90
2997;DHT22;1508;48.744;9.110;2023-05-07T12:18:45;16.80;99.90
2997;DHT22;1508;48.744;9.110;2023-05-07T12:21:31;16.70;99.90
2997;DHT22;1508;48.744;9.110;2023-05-07T12:24:16;16.50;99.90
2997;DHT22;1508;48.744;9.110;2023-05-07T12:27:02;16.30;99.90
2997;DHT22;1508;48.744;9.110;2023-05-07T12:29:48;16.10;99.90
2997;DHT22;1508;48.744;9.110;2023-05-07T12:32:34;15.90;99.90
2997;DHT22;1508;48.744;9.110;2023-05-07T12:35:28;15.70;99.90
2997;DHT22;1508;48.744;9.110;2023-05-07T12:38:15;15.60;99.90
2997;DHT22;1508;48.744;9.110;2023-05-07T12:41:01;15.70;99.90
2997;DHT22;1508;48.744;9.110;2023-05-07T12:43:46;15.70;99.90
2997;DHT22;1508;48.744;9.110;2023-05-07T12:46:32;15.60;99.90
2997;DHT22;1508;48.744;9.110;2023-05-07T12:49:23;15.60;99.90
2997;DHT22;1508;48.744;9.110;2023-05-07T12:52:09;15.60;99.90
2997;DHT22;1508;48.744;9.110;2023-05-07T12:54:56;15.50;99.90
2997;DHT22;1508;48.744;9.110;2023-05-07T12:57:43;15.40;99.90
2997;DHT22;1508;48.744;9.110;2023-05-07T13:00:36;15.40;99.90
2997;DHT22;1508;48.744;9.110;2023-05-07T13:03:29;15.50;99.90
2997;DHT22;1508;48.744;9.110;2023-05-07T13:06:15;15.60;99.90
2997;DHT22;1508;48.744;9.110;2023-05-07T13:09:01;15.60;99.90
2997;DHT22;1508;48.744;9.110;2023-05-07T13:11:47;15.50;99.90
2997;DHT22;1508;48.744;9.110;2023-05-07T13:14:32;15.60;99.90
2997;DHT22;1508;48.744;9.110;2023-05-07T13:17:18;15.70;99.90
2997;DHT22;1508;48.744;9.110;2023-05-07T13:20:04;15.70;99.90
2997;DHT22;1508;48.744;9.110;2023-05-07T13:22:50;15.80;99.90
2997;DHT22;1508;48.744;9.110;2023-05-07T13:25:36;15.80;99.90
2997;DHT22;1508;48.744;9.110;2023-05-07T13:28:22;15.70;99.90
2997;DHT22;1508;48.744;9.110;2023-05-07T13:31:08;15.60;99.90
2997;DHT22;1508;48.744;9.110;2023-05-07T13:33:53;15.50;99.90
2997;DHT22;1508;48.744;9.110;2023-05-07T13:36:39;15.30;99.90
2997;DHT22;1508;48.744;9.110;2023-05-07T13:39:25;15.30;99.90
2997;DHT22;1508;48.744;9.110;2023-05-07T13:42:11;15.30;99.90
2997;DHT22;1508;48.744;9.110;2023-05-07T13:44:56;15.30;99.90
2997;DHT22;1508;48.744;9.110;2023-05-07T13:47:42;15.40;99.90
2997;DHT22;1508;48.744;9.110;2023-05-07T13:50:28;15.50;99.90
2997;DHT22;1508;48.744;9.110;2023-05-07T13:53:13;15.50;99.90
2997;DHT22;1508;48.744;9.110;2023-05-07T13:55:59;15.60;99.90
2997;DHT22;1508;48.744;9.110;2023-05-07T13:58:45;15.60;99.90
2997;DHT22;1508;48.744;9.110;2023-05-07T14:01:31;15.80;99.90
2997;DHT22;1508;48.744;9.110;2023-05-07T14:04:16;15.70;99.90
2997;DHT22;1508;48.744;9.110;2023-05-07T14:07:02;15.60;99.90
2997;DHT22;1508;48.744;9.110;2023-05-07T14:09:48;15.50;99.90
2997;DHT22;1508;48.744;9.110;2023-05-07T14:12:34;15.60;99.90
2997;DHT22;1508;48.744;9.110;2023-05-07T14:15:19;15.50;99.90
2997;DHT22;1508;48.744;9.110;2023-05-07T14:18:05;15.70;99.90
2997;DHT22;1508;48.744;9.110;2023-05-07T14:20:51;15.80;99.90
2997;DHT22;1508;48.744;9.110;2023-05-07T14:23:37;15.80;99.90
2997;DHT22;1508;48.744;9.110;2023-05-07T14:26:22;15.60;99.90
2997;DHT22;1508;48.744;9.110;2023-05-07T14:29:08;15.60;99.90
2997;DHT22;1508;48.744;9.110;2023-05-07T14:31:54;15.80;99.90
2997;DHT22;1508;48.744;9.110;2023-05-07T14:34:40;15.90;99.90
2997;DHT22;1508;48.744;9.110;2023-05-07T14:37:25;15.90;99.90
2997;DHT22;1508;48.744;9.110;2023-05-07T14:40:11;15.70;99.90
2997;DHT22;1508;48.744;9.110;2023-05-07T14:42:57;15.60;99.90
2997;DHT22;1508;48.744;9.110;2023-05-07T14:45:43;15.50;99.90
2997;DHT22;1508;48.744;9.110;2023-05-07T14:48:28;15.40;99.90
2997;DHT22;1508;48.744;9.110;2023-05-07T14:51:14;15.40;99.90
2997;DHT22;1508;48.744;9.110;2023-05-07T14:54:00;15.40;99.90
2997;DHT22;1508;48.744;9.110;2023-05-07T14:56:46;15.50;99.90
2997;DHT22;1508;48.744;9.110;2023-05-07T14:59:31;15.50;99.90
2997;DHT22;1508;48.744;9.110;2023-05-07T15:02:17;15.60;99.90
2997;DHT22;1508;48.744;9.110;2023-05-07T15:05:03;15.70;99.90
2997;DHT22;1508;48.744;9.110;2023-05-07T15:07:49;15.70;99.90
2997;DHT22;1508;48.744;9.110;2023-05-07T15:10:35;15.80;99.90
2997;DHT22;1508;48.744;9.110;2023-05-07T15:13:21;16.00;99.90
2997;DHT22;1508;48.744;9.110;2023-05-07T15:16:07;16.00;99.90
2997;DHT22;1508;48.744;9.110;2023-05-07T15:18:53;16.10;99.90
2997;DHT22;1508;48.744;9.110;2023-05-07T15:21:38;16.20;99.90
2997;DHT22;1508;48.744;9.110;2023-05-07T15:24:24;16.30;99.90
2997;DHT22;1508;48.744;9.110;2023-05-07T15:27:10;16.50;99.90
2997;DHT22;1508;48.744;9.110;2023-05-07T15:29:56;16.50;99.90
2997;DHT22;1508;48.744;9.110;2023-05-07T15:32:42;16.70;99.90
2997;DHT22;1508;48.744;9.110;2023-05-07T15:35:28;16.80;99.90
2997;DHT22;1508;48.744;9.110;2023-05-07T15:38:14;16.90;99.90
2997;DHT22;1508;48.744;9.110;2023-05-07T15:40:59;16.90;99.90
2997;DHT22;1508;48.744;9.110;2023-05-07T15:43:46;16.90;99.90
2997;DHT22;1508;48.744;9.110;2023-05-07T15:46:32;17.10;99.90
2997;DHT22;1508;48.744;9.110;2023-05-07T15:49:18;17.10;99.90
2997;DHT22;1508;48.744;9.110;2023-05-07T15:52:04;17.00;99.90
2997;DHT22;1508;48.744;9.110;2023-05-07T15:54:49;16.90;99.90
2997;DHT22;1508;48.744;9.110;2023-05-07T15:57:35;16.90;99.90
2997;DHT22;1508;48.744;9.110;2023-05-07T16:00:21;16.90;99.90
2997;DHT22;1508;48.744;9.110;2023-05-07T16:03:07;17.00;99.90
2997;DHT22;1508;48.744;9.110;2023-05-07T16:05:52;17.00;99.90
2997;DHT22;1508;48.744;9.110;2023-05-07T16:08:38;17.10;99.90
2997;DHT22;1508;48.744;9.110;2023-05-07T16:11:25;17.10;99.90
2997;DHT22;1508;48.744;9.110;2023-05-07T16:14:11;17.00;99.90
2997;DHT22;1508;48.744;9.110;2023-05-07T16:16:56;16.60;99.90
2997;DHT22;1508;48.744;9.110;2023-05-07T16:19:42;16.10;99.90
2997;DHT22;1508;48.744;9.110;2023-05-07T16:22:28;15.70;99.90
2997;DHT22;1508;48.744;9.110;2023-05-07T16:25:14;15.90;99.90
2997;DHT22;1508;48.744;9.110;2023-05-07T16:27:59;15.90;99.90
2997;DHT22;1508;48.744;9.110;2023-05-07T16:30:45;15.90;99.90
2997;DHT22;1508;48.744;9.110;2023-05-07T16:33:31;15.90;99.90
2997;DHT22;1508;48.744;9.110;2023-05-07T16:36:17;16.00;99.90
2997;DHT22;1508;48.744;9.110;2023-05-07T16:39:02;16.00;99.90
2997;DHT22;1508;48.744;9.110;2023-05-07T16:41:48;15.70;99.90
2997;DHT22;1508;48.744;9.110;2023-05-07T16:44:34;15.60;99.90
2997;DHT22;1508;48.744;9.110;2023-05-07T16:47:20;15.60;99.90
2997;DHT22;1508;48.744;9.110;2023-05-07T16:50:06;15.70;99.90
2997;DHT22;1508;48.744;9.110;2023-05-07T16:52:51;15.90;99.90
2997;DHT22;1508;48.744;9.110;2023-05-07T16:55:37;15.90;99.90
2997;DHT22;1508;48.744;9.110;2023-05-07T16:58:23;15.90;99.90
2997;DHT22;1508;48.744;9.110;2023-05-07T17:01:09;15.90;99.90
2997;DHT22;1508;48.744;9.110;2023-05-07T17:03:54;15.90;99.90
2997;DHT22;1508;48.744;9.110;2023-05-07T17:06:40;15.70;99.90
2997;DHT22;1508;48.744;9.110;2023-05-07T17:09:26;15.60;99.90
2997;DHT22;1508;48.744;9.110;2023-05-07T17:12:12;15.70;99.90
2997;DHT22;1508;48.744;9.110;2023-05-07T17:14:57;15.80;99.90
2997;DHT22;1508;48.744;9.110;2023-05-07T17:17:43;15.80;99.90
2997;DHT22;1508;48.744;9.110;2023-05-07T17:20:29;15.90;99.90
2997;DHT22;1508;48.744;9.110;2023-05-07T17:23:15;15.90;99.90
2997;DHT22;1508;48.744;9.110;2023-05-07T17:26:00;15.60;99.90
2997;DHT22;1508;48.744;9.110;2023-05-07T17:28:46;15.50;99.90
2997;DHT22;1508;48.744;9.110;2023-05-07T17:31:32;15.60;99.90
2997;DHT22;1508;48.744;9.110;2023-05-07T17:34:17;15.50;99.90
2997;DHT22;1508;48.744;9.110;2023-05-07T17:37:03;15.40;99.90
2997;DHT22;1508;48.744;9.110;2023-05-07T17:39:49;15.40;99.90
2997;DHT22;1508;48.744;9.110;2023-05-07T17:42:35;15.50;99.90
2997;DHT22;1508;48.744;9.110;2023-05-07T17:45:21;15.40;99.90
2997;DHT22;1508;48.744;9.110;2023-05-07T17:48:06;15.40;99.90
2997;DHT22;1508;48.744;9.110;2023-05-07T17:50:52;15.30;99.90
2997;DHT22;1508;48.744;9.110;2023-05-07T17:53:38;15.30;99.90
2997;DHT22;1508;48.744;9.110;2023-05-07T17:56:24;15.20;99.90
2997;DHT22;1508;48.744;9.110;2023-05-07T17:59:09;15.20;99.90
2997;DHT22;1508;48.744;9.110;2023-05-07T18:01:55;15.30;99.90
2997;DHT22;1508;48.744;9.110;2023-05-07T18:04:41;15.20;99.90
2997;DHT22;1508;48.744;9.110;2023-05-07T18:07:27;15.20;99.90
2997;DHT22;1508;48.744;9.110;2023-05-07T18:10:12;15.10;99.90
2997;DHT22;1508;48.744;9.110;2023-05-07T18:12:58;15.00;99.90
2997;DHT22;1508;48.744;9.110;2023-05-07T18:15:44;15.00;99.90
2997;DHT22;1508;48.744;9.110;2023-05-07T18:18:30;15.10;99.90
2997;DHT22;1508;48.744;9.110;2023-05-07T18:21:16;15.20;99.90
2997;DHT22;1508;48.744;9.110;2023-05-07T18:24:02;15.10;99.90
2997;DHT22;1508;48.744;9.110;2023-05-07T18:26:47;15.00;99.90
2997;DHT22;1508;48.744;9.110;2023-05-07T18:29:33;14.90;99.90
2997;DHT22;1508;48.744;9.110;2023-05-07T18:32:19;14.90;99.90